METAR AND TAF INFORMATION
METAR FOR VEPY
ADDS - METARS form results

(1007 UTC 05 September 2022)
Data provider http://aviationweather.gov/metar/data/
 
Forecast for: VEPY (PAKYONG , IN)
Text: TAF VEPY 050800Z 0509/0518 20005KT 3500 -RA BR SCT008 SCT015 BKN100
Forecast period: 0900 to 1300 UTC 05 September 2022
Forecast type: FROM: standard forecast or significant change
Winds: from the SSW (200 degrees) at 6 MPH (5 knots; 2.6 m/s)
Visibility: 2.17 miles (3.49 km)
Ceiling: 10000 feet AGL
Clouds: scattered clouds at 800 feet AGL
scattered clouds at 1500 feet AGL
broken clouds at 10000 feet AGL
Weather: -RA BR  (light rain, mist)
Text: BECMG 0513/0515 00000KT 2500 -RA BR
Forecast period: 1300 to 1800 UTC 05 September 2022
Forecast type: BECOMING: Conditions expected to become as follows by 1500 UTC 05 September 2022
Winds: calm
Visibility: 1.55 miles (2.49 km)
Ceiling: 10000 feet AGL
Clouds: scattered clouds at 800 feet AGL
scattered clouds at 1500 feet AGL
broken clouds at 10000 feet AGL
Weather: -RA BR  (light rain, mist)

 AIRPORT MAP

 RUNWAY INFORMATION

 AIRPORT FREQUENCIES

 AIRPORT NEAR NAVIGATION AIDS